!!! Benutzen Sie für Ihre Flugvorbereitung die offiziellen Quellen !!!

Metar:

EDQM 171720Z 00000KT CAVOK 14/08 Q1021

QNH: 1021
Temperatur: 14
Dew Point : 8

 

METAR (decoded)